createdAt,value
2022-11-27T00:07:07.026Z,90
2022-11-27T00:17:07.225Z,90
2022-11-27T00:27:08.233Z,90
2022-11-27T00:37:09.124Z,90
2022-11-27T00:47:09.766Z,90
2022-11-27T00:57:10.242Z,90
2022-11-27T01:07:10.481Z,90
2022-11-27T01:17:11.256Z,90
2022-11-27T01:27:11.628Z,90
2022-11-27T01:37:11.877Z,91
2022-11-27T01:47:12.572Z,91
2022-11-27T01:57:13.067Z,90
2022-11-27T02:07:13.240Z,90
2022-11-27T02:17:13.579Z,90
2022-11-27T02:27:14.376Z,89
2022-11-27T02:37:14.929Z,89
2022-11-27T02:47:15.513Z,89
2022-11-27T02:57:16.370Z,89
2022-11-27T03:07:17.508Z,88
2022-11-27T03:17:17.990Z,88
2022-11-27T03:27:18.536Z,87
2022-11-27T03:47:20.244Z,86
2022-11-27T03:57:20.450Z,86
2022-11-27T04:07:21.488Z,84
2022-11-27T04:17:22.151Z,83
2022-11-27T04:27:22.978Z,82
2022-11-27T04:37:23.502Z,81
2022-11-27T04:47:24.057Z,80
2022-11-27T04:57:24.778Z,79
2022-11-27T05:07:25.582Z,79
2022-11-27T05:10:03.818Z,79
2022-11-27T05:17:33.912Z,79
2022-11-27T05:27:34.688Z,79
2022-11-27T05:37:35.328Z,79
2022-11-27T05:47:36.127Z,79
2022-11-27T05:57:36.982Z,78
2022-11-27T06:07:38.092Z,78
2022-11-27T06:17:38.547Z,78
2022-11-27T06:27:38.884Z,78
2022-11-27T06:57:41.607Z,78
2022-11-27T07:07:43.852Z,78
2022-11-27T07:17:42.468Z,78
2022-11-27T07:27:42.791Z,78
2022-11-27T07:37:43.609Z,79
2022-11-27T07:47:44.170Z,78
2022-11-27T07:57:44.535Z,78
2022-11-27T08:07:45.094Z,78
2022-11-27T08:17:45.869Z,77
2022-11-27T08:27:46.856Z,76
2022-11-27T08:37:47.656Z,75
2022-11-27T08:47:48.004Z,74
2022-11-27T08:57:48.346Z,74
2022-11-27T09:07:48.865Z,72
2022-11-27T09:17:49.005Z,72
2022-11-27T09:27:50.039Z,72
2022-11-27T09:37:50.393Z,71
2022-11-27T09:47:50.553Z,71
2022-11-27T09:57:51.554Z,70
2022-11-27T10:07:52.004Z,69
2022-11-27T10:17:52.627Z,68
2022-11-27T10:27:53.651Z,67
2022-11-27T10:37:54.040Z,67
2022-11-27T10:47:54.555Z,66
2022-11-27T10:57:54.851Z,66
2022-11-27T11:07:55.190Z,65
2022-11-27T11:17:55.842Z,65
2022-11-27T11:27:56.324Z,65
2022-11-27T11:37:56.579Z,64
2022-11-27T11:47:57.227Z,64
2022-11-27T11:57:57.967Z,63
2022-11-27T12:07:58.528Z,63
2022-11-27T12:17:58.674Z,62
2022-11-27T12:27:59.643Z,65
2022-11-27T12:38:00.697Z,65
2022-11-27T12:48:01.163Z,65
2022-11-27T12:58:02.296Z,66
2022-11-27T13:08:02.367Z,66
2022-11-27T13:28:03.384Z,63
2022-11-27T13:38:04.014Z,63
2022-11-27T13:48:04.920Z,63
2022-11-27T13:58:05.492Z,62
2022-11-27T14:08:05.846Z,61
2022-11-27T14:18:06.849Z,60
2022-11-27T14:38:08.183Z,60
2022-11-27T14:48:08.985Z,61
2022-11-27T14:58:09.853Z,63
2022-11-27T15:18:10.578Z,65
2022-11-27T15:38:11.544Z,72
2022-11-27T15:48:12.393Z,76
2022-11-27T15:58:13.267Z,76
2022-11-27T16:08:13.956Z,75
2022-11-27T16:18:14.322Z,75
2022-11-27T16:28:14.742Z,75
2022-11-27T16:38:15.149Z,74
2022-11-27T16:48:15.811Z,72
2022-11-27T16:58:16.162Z,72
2022-11-27T17:08:17.029Z,70
2022-11-27T17:18:17.601Z,69
2022-11-27T17:28:18.176Z,69
2022-11-27T17:38:19.257Z,68
2022-11-27T17:48:20.110Z,68
2022-11-27T17:58:20.873Z,68
2022-11-27T18:08:21.415Z,67
2022-11-27T18:18:21.641Z,67
2022-11-27T18:28:22.304Z,66
2022-11-27T18:38:23.279Z,67
2022-11-27T18:48:23.979Z,68
2022-11-27T18:58:24.328Z,67
2022-11-27T19:08:24.629Z,67
2022-11-27T19:18:24.967Z,68
2022-11-27T19:28:25.268Z,68
2022-11-27T19:38:25.723Z,71
2022-11-27T19:48:25.824Z,73
2022-11-27T19:58:26.254Z,75
2022-11-27T20:08:26.856Z,79
2022-11-27T20:18:27.714Z,80
2022-11-27T20:28:28.357Z,79
2022-11-27T20:38:29.189Z,78
2022-11-27T20:48:30.101Z,72
2022-11-27T20:58:30.407Z,70
2022-11-27T21:08:31.341Z,70
2022-11-27T21:18:31.770Z,71
2022-11-27T21:28:32.239Z,70
2022-11-27T21:38:32.993Z,70
2022-11-27T21:48:33.113Z,70
2022-11-27T21:58:34.022Z,71
2022-11-27T22:08:34.445Z,72
2022-11-27T22:18:35.388Z,72
2022-11-27T22:28:36.456Z,71
2022-11-27T22:38:37.366Z,73
2022-11-27T22:48:37.738Z,75
2022-11-27T22:58:41.310Z,75
2022-11-27T23:08:38.908Z,75
2022-11-27T23:18:39.572Z,76
2022-11-27T23:28:40.142Z,77
2022-11-27T23:38:40.656Z,79
2022-11-27T23:48:41.087Z,82
2022-11-27T23:58:45.336Z,85
